Time;durP1;ratioP1;P1;durP2;ratioP2;P2;SDS_P1;SDS_P2;PMS_P1;PMS_P2;Temp;Humidity;BMP_temperature;BMP_pressure;BME280_temperature;BME280_humidity;BME280_pressure;Samples;Min_cycle;Max_cycle;Signal;HPM_P1;HPM_P2
2023/10/10 00:01:48;;;;;;;28.08;15.77;;;;;;;12.78;100.00;102099.53;5246690;28;20489;-70
2023/10/10 00:04:21;;;;;;;31.80;14.73;;;;;;;12.78;100.00;102096.84;5249206;28;20081;-70
2023/10/10 00:06:51;;;;;;;37.83;16.85;;;;;;;12.77;100.00;102102.41;5250750;28;20115;-70
2023/10/10 00:09:23;;;;;;;28.15;15.48;;;;;;;12.73;100.00;102107.22;5250845;28;20036;-70
2023/10/10 00:11:57;;;;;;;26.30;14.73;;;;;;;12.67;100.00;102099.75;5246539;28;20025;-70
2023/10/10 00:14:29;;;;;;;27.90;15.38;;;;;;;12.63;100.00;102096.50;5249123;28;20032;-70
2023/10/10 00:17:00;;;;;;;27.50;15.95;;;;;;;12.61;100.00;102101.19;5249993;28;20461;-70
2023/10/10 00:19:37;;;;;;;24.20;15.98;;;;;;;12.59;100.00;102097.78;5241577;28;20028;-70
2023/10/10 00:22:07;;;;;;;26.17;16.13;;;;;;;12.57;100.00;102089.03;5245702;28;20016;-70
2023/10/10 00:24:38;;;;;;;22.70;14.20;;;;;;;12.52;100.00;102091.31;5243378;28;20358;-70
2023/10/10 00:27:16;;;;;;;42.45;16.25;;;;;;;12.48;100.00;102091.75;5249082;28;20027;-71
2023/10/10 00:29:48;;;;;;;22.15;16.38;;;;;;;12.50;100.00;102095.16;5245868;28;20028;-70
2023/10/10 00:32:26;;;;;;;20.73;13.18;;;;;;;12.50;100.00;102100.53;5247664;28;20020;-71
2023/10/10 00:34:56;;;;;;;24.35;15.05;;;;;;;12.50;100.00;102093.31;5251252;28;20427;-70
2023/10/10 00:37:29;;;;;;;24.63;15.25;;;;;;;12.49;100.00;102090.75;5248110;28;20012;-70
2023/10/10 00:40:03;;;;;;;28.98;12.50;;;;;;;12.42;100.00;102085.13;5248748;28;20034;-70
2023/10/10 00:42:41;;;;;;;23.63;12.97;;;;;;;12.37;100.00;102079.34;5253901;28;20021;-70
2023/10/10 00:45:14;;;;;;;25.42;13.82;;;;;;;12.35;100.00;102086.69;5249568;28;20122;-71
2023/10/10 00:47:47;;;;;;;23.17;12.82;;;;;;;12.32;100.00;102087.03;5253327;28;20473;-70
2023/10/10 00:50:20;;;;;;;18.27;11.50;;;;;;;12.31;100.00;102088.03;5254022;28;20012;-70
2023/10/10 00:52:53;;;;;;;19.20;12.68;;;;;;;12.26;100.00;102076.84;5252289;28;20389;-70
2023/10/10 00:55:24;;;;;;;22.98;14.93;;;;;;;12.23;100.00;102069.91;5248346;28;20080;-70
2023/10/10 00:57:58;;;;;;;29.73;16.05;;;;;;;12.21;100.00;102069.22;5246885;28;21650;-70
2023/10/10 01:00:30;;;;;;;24.35;15.00;;;;;;;12.22;100.00;102057.47;5249234;28;20431;-70
2023/10/10 01:03:19;;;;;;;25.33;15.35;;;;;;;12.28;100.00;102064.09;5250168;28;20025;-70
2023/10/10 01:05:58;;;;;;;23.35;14.75;;;;;;;12.29;100.00;102055.00;5250265;28;20434;-70
2023/10/10 01:08:49;;;;;;;23.65;14.45;;;;;;;12.28;100.00;102053.31;5250283;28;20025;-70
2023/10/10 01:11:20;;;;;;;24.83;13.40;;;;;;;12.26;100.00;102056.16;5252080;28;20386;-70
2023/10/10 01:13:56;;;;;;;18.63;13.57;;;;;;;12.23;100.00;102055.59;5252006;28;20171;-70
2023/10/10 01:16:27;;;;;;;24.00;13.60;;;;;;;12.22;100.00;102056.59;5251304;28;20044;-70
2023/10/10 01:18:57;;;;;;;27.05;13.73;;;;;;;12.22;100.00;102048.53;5252967;28;20265;-70
2023/10/10 01:21:43;;;;;;;22.73;14.65;;;;;;;12.22;100.00;102048.53;5253196;28;20024;-70
2023/10/10 01:24:17;;;;;;;28.45;15.13;;;;;;;12.21;100.00;102034.25;5246879;28;20028;-70
2023/10/10 01:27:16;;;;;;;32.33;14.63;;;;;;;12.19;100.00;102036.22;5249570;28;20023;-70
2023/10/10 01:30:17;;;;;;;25.35;14.57;;;;;;;12.15;100.00;102034.84;5249886;28;20239;-70
2023/10/10 01:33:03;;;;;;;17.40;10.63;;;;;;;12.16;100.00;102029.31;5246609;28;20049;-70
2023/10/10 01:35:34;;;;;;;27.13;13.05;;;;;;;12.15;100.00;102033.00;5253383;28;20041;-70
2023/10/10 01:38:13;;;;;;;27.20;15.30;;;;;;;12.18;100.00;102034.53;5253195;28;20020;-71
2023/10/10 01:40:44;;;;;;;27.50;14.57;;;;;;;12.20;100.00;102019.09;5247370;28;20389;-70
2023/10/10 01:43:17;;;;;;;23.13;13.20;;;;;;;12.22;100.00;102017.09;5252504;28;20025;-70
2023/10/10 01:46:08;;;;;;;24.05;13.25;;;;;;;12.19;100.00;102015.53;5247174;28;20032;-70
2023/10/10 01:48:43;;;;;;;21.45;11.90;;;;;;;12.18;100.00;102013.00;5245096;28;20162;-70
2023/10/10 01:51:15;;;;;;;19.70;10.90;;;;;;;12.14;100.00;102007.06;5245865;28;20047;-70
2023/10/10 01:53:48;;;;;;;21.75;12.23;;;;;;;12.11;100.00;102006.53;5251634;28;20465;-70
2023/10/10 01:56:18;;;;;;;26.00;13.25;;;;;;;12.09;100.00;101997.75;5253046;28;20103;-70
2023/10/10 01:58:54;;;;;;;41.70;14.75;;;;;;;12.05;100.00;101994.53;5251523;28;20024;-70
2023/10/10 02:01:27;;;;;;;25.23;14.27;;;;;;;12.03;100.00;101988.44;5249842;28;20222;-71
2023/10/10 02:04:05;;;;;;;25.88;14.57;;;;;;;12.02;100.00;101993.97;5255450;28;20100;-70
2023/10/10 02:06:39;;;;;;;22.47;12.83;;;;;;;12.03;100.00;101993.81;5244724;28;20021;-70
2023/10/10 02:09:33;;;;;;;23.73;12.88;;;;;;;12.06;100.00;101993.53;5247891;28;20059;-70
2023/10/10 02:12:17;;;;;;;28.42;13.52;;;;;;;12.06;100.00;101985.47;5253040;28;20065;-70
2023/10/10 02:14:48;;;;;;;26.80;12.65;;;;;;;12.06;100.00;101987.31;5251875;28;20032;-70
2023/10/10 02:17:22;;;;;;;20.25;11.25;;;;;;;12.03;100.00;101982.22;5252007;28;20065;-70
2023/10/10 02:19:54;;;;;;;16.38;9.73;;;;;;;12.02;100.00;101983.22;5251970;28;20032;-70
2023/10/10 02:22:47;;;;;;;20.45;10.80;;;;;;;12.01;100.00;101978.84;5249655;28;20421;-70
2023/10/10 02:27:57;;;;;;;16.58;10.27;;;;;;;11.99;100.00;101972.75;5250503;28;20408;-70
2023/10/10 02:30:40;;;;;;;16.50;9.52;;;;;;;11.96;100.00;101973.91;5250720;28;20070;-70
2023/10/10 02:33:30;;;;;;;18.50;10.60;;;;;;;11.98;100.00;101969.19;5252867;28;20016;-70
2023/10/10 02:36:00;;;;;;;15.20;9.60;;;;;;;11.97;100.00;101980.13;5254518;28;20488;-70
2023/10/10 02:38:34;;;;;;;19.63;10.20;;;;;;;11.98;100.00;101974.59;5249722;28;20146;-70
2023/10/10 02:41:24;;;;;;;23.50;11.15;;;;;;;11.98;100.00;101977.28;5254270;28;20192;-70
2023/10/10 02:44:05;;;;;;;20.92;11.93;;;;;;;11.95;100.00;101969.53;5251856;28;20074;-70
2023/10/10 02:46:38;;;;;;;20.55;10.73;;;;;;;11.93;100.00;101974.19;5249750;28;20020;-70
2023/10/10 02:49:23;;;;;;;22.00;12.75;;;;;;;11.92;100.00;101967.97;5248949;28;20103;-70
2023/10/10 02:51:55;;;;;;;22.65;12.70;;;;;;;11.91;100.00;101971.66;5254075;28;20027;-70
2023/10/10 02:54:34;;;;;;;15.55;10.02;;;;;;;11.87;100.00;101974.78;5245300;28;20115;-70
2023/10/10 03:00:15;;;;;;;16.25;9.75;;;;;;;11.77;100.00;101987.38;5249508;28;20028;-70
2023/10/10 03:02:53;;;;;;;15.35;9.13;;;;;;;11.78;100.00;101978.31;5244347;28;20033;-70
2023/10/10 03:05:58;;;;;;;16.70;11.20;;;;;;;11.78;100.00;101973.78;5250772;28;20029;-70
2023/10/10 03:08:34;;;;;;;28.10;13.82;;;;;;;11.80;100.00;101976.34;5250813;28;20032;-70
2023/10/10 03:11:14;;;;;;;28.23;14.45;;;;;;;11.80;100.00;101979.03;5249903;28;20024;-70
2023/10/10 03:13:48;;;;;;;22.48;12.85;;;;;;;11.78;100.00;101978.31;5248574;28;20082;-70
2023/10/10 03:19:13;;;;;;;23.95;13.27;;;;;;;11.74;100.00;101976.91;5249878;28;20028;-70
2023/10/10 03:21:50;;;;;;;19.52;12.10;;;;;;;11.71;100.00;101971.84;5249569;28;20047;-70
2023/10/10 03:24:49;;;;;;;23.42;12.88;;;;;;;11.72;100.00;101970.84;5246695;28;20031;-70
2023/10/10 03:29:49;;;;;;;25.95;13.27;;;;;;;11.83;100.00;101979.59;5249471;28;20024;-70
2023/10/10 03:32:33;;;;;;;22.95;12.65;;;;;;;11.82;100.00;101980.59;5245138;28;20481;-70
2023/10/10 03:35:06;;;;;;;21.50;12.00;;;;;;;11.81;100.00;101978.03;5254685;28;20028;-70
2023/10/10 03:37:54;;;;;;;19.08;11.55;;;;;;;11.79;100.00;101977.31;5243510;28;20036;-70
2023/10/10 03:41:04;;;;;;;20.25;11.38;;;;;;;11.78;100.00;101975.63;5247164;28;20016;-70
2023/10/10 05:24:51;;;;;;;11.55;7.38;;;;;;;11.13;100.00;101949.44;5249711;28;20454;-70
2023/10/10 05:27:29;;;;;;;16.42;9.30;;;;;;;11.12;100.00;101947.75;5253419;28;20100;-70
2023/10/10 05:30:00;;;;;;;17.02;10.38;;;;;;;11.11;100.00;101947.91;5254454;28;20054;-70
2023/10/10 05:32:32;;;;;;;22.23;11.52;;;;;;;11.08;100.00;101942.81;5242310;28;20016;-70
2023/10/10 05:35:11;;;;;;;27.40;13.90;;;;;;;11.05;100.00;101945.81;5252493;28;20032;-70
2023/10/10 05:37:41;;;;;;;225.98;18.98;;;;;;;11.01;100.00;101937.19;5245723;28;20040;-70
2023/10/10 05:40:13;;;;;;;141.27;15.02;;;;;;;10.96;100.00;101936.75;5251383;28;20051;-71
2023/10/10 05:42:45;;;;;;;139.07;12.60;;;;;;;10.92;100.00;101926.44;5250804;28;20013;-70
2023/10/10 05:45:15;;;;;;;53.05;9.18;;;;;;;10.81;100.00;101927.44;5250683;28;20513;-70
2023/10/10 05:47:46;;;;;;;30.77;8.98;;;;;;;10.80;100.00;101936.50;5251742;28;20013;-70
2023/10/10 05:50:18;;;;;;;30.67;10.27;;;;;;;10.78;100.00;101925.88;5247582;28;20043;-70
2023/10/10 05:52:49;;;;;;;31.38;11.27;;;;;;;10.79;100.00;101926.72;5243168;28;20020;-70
2023/10/10 05:55:20;;;;;;;230.38;16.52;;;;;;;10.78;100.00;101928.56;5251127;28;20032;-70
2023/10/10 05:57:51;;;;;;;15.55;7.72;;;;;;;10.78;100.00;101925.03;5250145;28;20103;-70
2023/10/10 06:00:25;;;;;;;25.98;8.45;;;;;;;10.75;100.00;101930.69;5247409;28;20485;-70
2023/10/10 06:02:56;;;;;;;18.55;10.27;;;;;;;10.73;100.00;101932.66;5249265;28;20036;-70
2023/10/10 06:05:29;;;;;;;18.00;10.68;;;;;;;10.74;100.00;101947.75;5248651;28;20393;-70
2023/10/10 06:08:01;;;;;;;17.30;9.95;;;;;;;10.75;100.00;101934.22;5250590;28;20027;-70
2023/10/10 06:10:32;;;;;;;21.83;10.38;;;;;;;10.80;100.00;101936.50;5248215;28;20051;-70
2023/10/10 06:13:04;;;;;;;20.58;10.93;;;;;;;10.86;100.00;101941.28;5252907;28;20020;-70
2023/10/10 06:15:34;;;;;;;18.63;10.02;;;;;;;10.89;100.00;101933.81;5249993;28;20082;-71
2023/10/10 06:18:12;;;;;;;33.58;10.50;;;;;;;10.95;100.00;101932.38;5249443;28;20051;-70
2023/10/10 06:20:44;;;;;;;30.95;11.15;;;;;;;10.98;100.00;101932.09;5248107;28;20028;-70
2023/10/10 06:23:14;;;;;;;26.70;12.35;;;;;;;11.03;100.00;101927.13;5245628;28;20029;-70
2023/10/10 06:25:45;;;;;;;30.88;13.95;;;;;;;11.12;100.00;101928.97;5252135;28;20023;-70
2023/10/10 06:28:23;;;;;;;27.17;13.82;;;;;;;11.23;100.00;101936.00;5248111;28;20366;-70
2023/10/10 06:30:53;;;;;;;32.50;14.45;;;;;;;11.35;100.00;101931.34;5250502;28;20123;-70
2023/10/10 06:33:33;;;;;;;19.20;11.18;;;;;;;11.46;100.00;101931.16;5249937;28;20015;-70
2023/10/10 06:36:32;;;;;;;43.67;14.57;;;;;;;11.51;100.00;101928.88;5250718;28;20107;-71
2023/10/10 06:41:38;;;;;;;29.83;14.02;;;;;;;11.66;100.00;101923.88;5248390;28;20405;-70
2023/10/10 06:44:17;;;;;;;40.13;16.85;;;;;;;11.75;100.00;101924.84;5245519;28;20055;-70
2023/10/10 06:46:48;;;;;;;32.20;15.20;;;;;;;11.86;100.00;101922.84;5249617;28;20024;-70
2023/10/10 06:49:20;;;;;;;32.45;15.60;;;;;;;11.99;100.00;101922.47;5247068;28;20025;-71
2023/10/10 06:51:55;;;;;;;27.40;13.85;;;;;;;12.13;100.00;101916.59;5251864;28;20390;-71
2023/10/10 06:54:28;;;;;;;31.73;13.00;;;;;;;12.31;100.00;101923.88;5249834;28;20020;-71
2023/10/10 06:59:30;;;;;;;28.48;12.90;;;;;;;12.63;100.00;101924.19;5244683;28;20020;-71
2023/10/10 07:02:13;;;;;;;23.77;11.73;;;;;;;12.80;100.00;101927.91;5248903;28;20097;-71
2023/10/10 07:04:43;;;;;;;23.55;10.93;;;;;;;12.96;100.00;101924.50;5247706;28;20452;-71
2023/10/10 07:07:18;;;;;;;24.85;11.60;;;;;;;13.08;100.00;101925.09;5248482;28;20043;-71
2023/10/10 07:09:57;;;;;;;27.48;14.02;;;;;;;13.20;100.00;101930.09;5250831;28;20405;-71
2023/10/10 07:12:28;;;;;;;26.17;12.43;;;;;;;13.27;100.00;101918.72;5249793;28;20021;-71
2023/10/10 07:15:00;;;;;;;26.70;14.50;;;;;;;13.38;100.00;101918.44;5249327;28;20024;-71
2023/10/10 07:17:31;;;;;;;27.17;14.20;;;;;;;13.52;100.00;101917.88;5248929;28;20370;-71
2023/10/10 07:22:33;;;;;;;22.25;11.52;;;;;;;13.68;100.00;101914.41;5249651;28;20117;-71
2023/10/10 07:25:07;;;;;;;20.38;11.82;;;;;;;13.80;100.00;101915.81;5246493;28;20165;-71
2023/10/10 07:27:39;;;;;;;24.92;11.77;;;;;;;13.94;100.00;101920.59;5241560;28;20088;-71
2023/10/10 07:30:17;;;;;;;23.30;10.80;;;;;;;14.17;100.00;101906.53;5252125;28;20419;-71
2023/10/10 07:32:48;;;;;;;22.70;10.13;;;;;;;14.52;100.00;101918.13;5249203;28;20031;-71
2023/10/10 07:35:25;;;;;;;19.92;9.60;;;;;;;14.81;100.00;101915.78;5247338;28;20020;-71
2023/10/10 07:37:58;;;;;;;25.88;9.68;;;;;;;14.99;100.00;101918.31;5244679;28;20032;-71
2023/10/10 07:40:31;;;;;;;17.20;8.60;;;;;;;15.22;100.00;101918.47;5248548;28;20115;-71
2023/10/10 07:43:03;;;;;;;17.98;8.80;;;;;;;15.38;100.00;101920.31;5248812;28;20111;-71
2023/10/10 07:45:33;;;;;;;22.67;8.00;;;;;;;15.61;100.00;101920.41;5247459;28;20060;-71
2023/10/10 07:50:46;;;;;;;17.70;8.77;;;;;;;16.10;100.00;101918.41;5246446;28;20025;-71
2023/10/10 07:53:17;;;;;;;18.20;8.40;;;;;;;16.30;100.00;101906.13;5245688;28;20024;-72
2023/10/10 07:56:00;;;;;;;17.48;7.78;;;;;;;16.17;100.00;101905.03;5250796;28;20031;-72
2023/10/10 07:58:49;;;;;;;18.45;8.25;;;;;;;16.32;100.00;101903.25;5246896;28;20465;-72
2023/10/10 08:01:20;;;;;;;17.50;8.60;;;;;;;16.60;100.00;101903.56;5246991;28;20035;-72
2023/10/10 08:03:50;;;;;;;16.30;8.05;;;;;;;16.90;100.00;101909.13;5248036;28;20020;-72
2023/10/10 08:06:22;;;;;;;14.18;7.55;;;;;;;17.18;100.00;101915.66;5250278;28;20020;-71
2023/10/10 08:11:41;;;;;;;16.30;7.22;;;;;;;17.82;100.00;101915.16;5248512;28;20012;-71
2023/10/10 08:14:12;;;;;;;15.88;7.78;;;;;;;17.99;100.00;101913.09;5251934;28;20087;-71
2023/10/10 08:16:43;;;;;;;18.80;8.27;;;;;;;18.24;100.00;101913.63;5247156;28;20027;-71
2023/10/10 08:19:15;;;;;;;16.85;7.75;;;;;;;18.43;100.00;101912.16;5248603;28;20031;-71
2023/10/10 08:21:51;;;;;;;17.52;7.65;;;;;;;18.09;100.00;101903.63;5250637;28;20020;-71
2023/10/10 08:24:22;;;;;;;16.05;7.38;;;;;;;18.24;100.00;101902.75;5246301;28;20035;-71
2023/10/10 08:26:52;;;;;;;23.20;8.55;;;;;;;18.33;100.00;101905.16;5255045;28;20032;-71
2023/10/10 08:29:27;;;;;;;18.85;8.00;;;;;;;18.35;100.00;101905.81;5254701;28;20087;-72
2023/10/10 08:31:57;;;;;;;16.70;7.20;;;;;;;18.38;100.00;101904.59;5257779;28;20047;-71
2023/10/10 08:34:27;;;;;;;21.15;8.13;;;;;;;18.28;100.00;101902.19;5253470;28;20025;-71
2023/10/10 08:37:03;;;;;;;17.90;7.53;;;;;;;18.26;100.00;101909.66;5257123;28;20028;-71
2023/10/10 08:39:41;;;;;;;19.10;7.63;;;;;;;17.99;100.00;101904.94;5251481;28;20036;-71
2023/10/10 08:42:14;;;;;;;18.48;8.32;;;;;;;18.25;100.00;101893.56;5248863;28;20319;-72
2023/10/10 08:44:55;;;;;;;16.17;8.07;;;;;;;18.53;100.00;101901.81;5254774;28;20036;-72
2023/10/10 08:47:32;;;;;;;20.38;8.50;;;;;;;19.24;100.00;101897.25;5246478;28;20032;-71
2023/10/10 08:50:03;;;;;;;17.42;7.93;;;;;;;19.63;100.00;101910.31;5252821;28;20031;-71
2023/10/10 08:52:38;;;;;;;17.70;7.82;;;;;;;19.52;100.00;101907.25;5252003;28;20020;-71
2023/10/10 08:55:11;;;;;;;20.23;8.13;;;;;;;19.56;100.00;101914.84;5259336;28;20028;-72
2023/10/10 08:57:43;;;;;;;17.88;8.60;;;;;;;19.14;100.00;101910.34;5255169;28;20062;-72
2023/10/10 09:00:17;;;;;;;19.23;8.07;;;;;;;18.91;100.00;101912.44;5254185;28;20039;-72
2023/10/10 09:02:49;;;;;;;16.45;8.10;;;;;;;19.20;100.00;101912.28;5246118;28;20068;-72
2023/10/10 09:05:19;;;;;;;23.08;7.88;;;;;;;19.34;100.00;101910.50;5252429;28;20024;-72
2023/10/10 09:07:53;;;;;;;17.45;7.80;;;;;;;19.55;100.00;101912.31;5252371;28;20080;-72
2023/10/10 09:10:39;;;;;;;23.58;8.27;;;;;;;19.87;100.00;101906.25;5249886;28;20024;-72
2023/10/10 09:13:10;;;;;;;22.17;8.18;;;;;;;20.21;100.00;101906.38;5253296;28;20056;-71
2023/10/10 09:15:54;;;;;;;18.48;8.05;;;;;;;20.52;100.00;101912.16;5249009;28;20055;-71
2023/10/10 09:18:25;;;;;;;19.13;7.22;;;;;;;20.83;100.00;101911.56;5253237;28;20043;-72
2023/10/10 09:21:18;;;;;;;25.95;8.70;;;;;;;21.00;100.00;101913.91;5259981;28;20028;-71
2023/10/10 09:24:15;;;;;;;20.33;9.05;;;;;;;20.82;100.00;101909.91;5246637;28;20060;-72
2023/10/10 09:26:44;;;;;;;18.88;8.13;;;;;;;20.96;100.00;101908.03;5250152;28;20154;-72
2023/10/10 09:29:30;;;;;;;17.00;7.97;;;;;;;20.87;100.00;101909.28;5251110;28;20115;-72
2023/10/10 09:32:01;;;;;;;;;;;;;;;20.69;100.00;101902.56;5249245;28;20043;-72
2023/10/10 09:34:35;;;;;;;20.23;7.72;;;;;;;21.03;100.00;101906.13;5253379;28;19908;-72
2023/10/10 09:37:10;;;;;;;16.10;7.68;;;;;;;21.37;100.00;101913.28;5256752;28;20150;-72
2023/10/10 09:39:43;;;;;;;16.17;7.78;;;;;;;21.66;100.00;101919.34;5249286;28;20028;-72
2023/10/10 09:42:44;;;;;;;18.45;7.32;;;;;;;21.72;100.00;101908.38;5257321;28;20031;-72
2023/10/10 09:45:51;;;;;;;19.38;7.60;;;;;;;21.66;100.00;101913.88;5243410;28;20062;-72
2023/10/10 09:48:33;;;;;;;18.40;7.72;;;;;;;21.42;100.00;101909.91;5247744;28;20115;-72
2023/10/10 09:52:47;;;;;;;24.05;7.55;;;;;;;21.34;100.00;101912.88;5248785;28;20035;-73
2023/10/10 09:54:15;;;;;;;18.45;7.35;;;;;;;21.47;100.00;101904.66;5257008;28;20028;-72
2023/10/10 09:56:47;;;;;;;21.02;7.28;;;;;;;21.53;100.00;101905.69;5247840;28;20393;-72
2023/10/10 09:59:20;;;;;;;18.55;7.35;;;;;;;21.61;100.00;101902.75;5243595;28;20381;-72
2023/10/10 10:01:59;;;;;;;18.98;7.35;;;;;;;21.58;100.00;101900.44;5251331;28;20032;-72
2023/10/10 10:04:38;;;;;;;21.58;7.15;;;;;;;21.75;100.00;101898.09;5251538;28;20033;-72
2023/10/10 10:07:12;;;;;;;20.85;7.53;;;;;;;21.88;100.00;101901.59;5255142;28;20020;-72
2023/10/10 10:09:59;;;;;;;17.25;6.78;;;;;;;22.10;100.00;101898.59;5244339;28;20106;-71
2023/10/10 10:12:43;;;;;;;15.90;6.38;;;;;;;22.39;100.00;101895.31;5252451;28;20779;-72
2023/10/10 10:15:18;;;;;;;17.50;6.30;;;;;;;22.74;100.00;101894.84;5247733;28;20107;-71
2023/10/10 10:17:49;;;;;;;13.30;6.57;;;;;;;22.64;100.00;101903.56;5251319;28;20021;-72
2023/10/10 10:20:25;;;;;;;17.63;6.25;;;;;;;22.48;100.00;101893.97;5251910;28;20028;-72
2023/10/10 10:23:00;;;;;;;12.05;5.82;;;;;;;22.71;100.00;101887.94;5251654;28;20029;-72
2023/10/10 10:25:31;;;;;;;18.45;5.88;;;;;;;22.79;100.00;101895.03;5250458;28;20027;-72
2023/10/10 10:28:11;;;;;;;17.60;5.82;;;;;;;22.80;100.00;101893.16;5252063;28;20062;-71
2023/10/10 10:30:51;;;;;;;19.05;5.85;;;;;;;22.71;100.00;101896.16;5244530;28;20327;-72
2023/10/10 10:33:23;;;;;;;18.85;6.30;;;;;;;22.61;100.00;101894.97;5231659;28;20020;-72
2023/10/10 10:35:59;;;;;;;14.50;6.10;;;;;;;22.87;100.00;101889.28;5246145;28;20106;-72
2023/10/10 10:38:31;;;;;;;14.50;5.80;;;;;;;23.00;100.00;101880.19;5255831;28;20558;-72
2023/10/10 10:41:15;;;;;;;16.58;5.78;;;;;;;23.18;100.00;101882.09;5237854;28;20112;-72
2023/10/10 10:43:50;;;;;;;17.75;6.40;;;;;;;23.22;100.00;101892.38;5254175;28;20365;-72
2023/10/10 10:46:39;;;;;;;14.80;5.85;;;;;;;23.33;100.00;101890.81;5250492;28;20504;-72
2023/10/10 10:49:13;;;;;;;15.85;5.55;;;;;;;23.31;100.00;101882.00;5244943;28;20067;-72
2023/10/10 10:51:48;;;;;;;19.98;5.70;;;;;;;23.10;100.00;101872.31;5250197;28;20017;-71
2023/10/10 10:54:35;;;;;;;15.93;5.07;;;;;;;23.15;100.00;101877.09;5251850;28;20071;-71
2023/10/10 10:57:06;;;;;;;18.67;5.53;;;;;;;23.21;100.00;101879.75;5250360;28;20028;-71
2023/10/10 10:59:54;;;;;;;12.98;5.15;;;;;;;23.21;100.00;101868.81;5249263;28;20019;-73
2023/10/10 11:02:29;;;;;;;20.60;5.00;;;;;;;23.10;100.00;101874.19;5241788;28;20070;-73
2023/10/10 11:05:00;;;;;;;17.70;5.15;;;;;;;23.14;100.00;101864.44;5244933;28;20051;-72
2023/10/10 11:07:41;;;;;;;15.10;5.22;;;;;;;23.14;100.00;101862.56;5246582;28;20424;-72
2023/10/10 11:10:11;;;;;;;14.32;5.00;;;;;;;23.22;100.00;101864.19;5234183;28;20068;-72
2023/10/10 11:12:42;;;;;;;13.45;5.03;;;;;;;23.42;100.00;101864.81;5241087;28;20518;-72
2023/10/10 11:15:12;;;;;;;17.00;5.50;;;;;;;23.59;100.00;101858.72;5247463;28;20028;-73
2023/10/10 11:17:53;;;;;;;16.60;4.53;;;;;;;23.69;100.00;101853.56;5246668;28;20509;-72
2023/10/10 11:20:54;;;;;;;13.60;4.32;;;;;;;23.91;100.00;101854.78;5245564;28;20490;-72
2023/10/10 11:23:21;;;;;;;10.80;4.60;;;;;;;24.21;100.00;101852.06;5241778;28;20041;-72
2023/10/10 11:26:00;;;;;;;14.93;4.47;;;;;;;24.33;100.00;101846.59;5240863;28;20028;-72
2023/10/10 11:28:37;;;;;;;14.30;4.78;;;;;;;24.37;100.00;101850.59;5229633;28;20036;-72
2023/10/10 11:31:08;;;;;;;23.33;4.35;;;;;;;24.29;100.00;101840.75;5229302;28;20504;-72
2023/10/10 11:33:48;;;;;;;12.93;4.20;;;;;;;24.12;100.00;101839.75;5228551;28;20121;-72
2023/10/10 11:36:29;;;;;;;9.85;3.97;;;;;;;23.76;100.00;101840.66;5228039;28;20036;-72
2023/10/10 11:39:16;;;;;;;16.20;4.32;;;;;;;23.66;100.00;101834.88;5228002;28;20029;-73
2023/10/10 11:41:48;;;;;;;15.48;4.25;;;;;;;23.82;100.00;101830.66;5250374;28;20042;-72
2023/10/10 11:44:20;;;;;;;12.77;4.82;;;;;;;23.88;100.00;101827.84;5241770;28;20131;-72
2023/10/10 11:47:02;;;;;;;20.48;4.93;;;;;;;23.96;100.00;101833.00;5228300;28;20039;-72
2023/10/10 11:49:35;;;;;;;11.82;4.03;;;;;;;24.09;100.00;101823.75;5240545;28;20070;-72
2023/10/10 11:52:18;;;;;;;12.73;4.45;;;;;;;24.24;100.00;101824.16;5248526;28;20023;-73
2023/10/10 11:54:49;;;;;;;15.52;4.18;;;;;;;24.46;100.00;101821.75;5248950;28;20040;-72
2023/10/10 11:57:20;;;;;;;10.35;3.78;;;;;;;24.66;100.00;101813.22;5250109;28;20043;-71
2023/10/10 11:59:51;;;;;;;13.27;4.68;;;;;;;24.68;100.00;101811.06;5250343;28;20474;-72
2023/10/10 12:02:29;;;;;;;14.90;4.15;;;;;;;24.73;100.00;101811.19;5245346;28;20036;-72
2023/10/10 12:05:14;;;;;;;12.98;4.25;;;;;;;24.65;100.00;101808.81;5253464;28;20031;-71
2023/10/10 12:07:44;;;;;;;14.77;4.45;;;;;;;24.42;100.00;101812.34;5249444;28;20031;-72
2023/10/10 12:10:17;;;;;;;13.85;4.22;;;;;;;24.61;100.00;101809.50;5247759;28;20025;-72
2023/10/10 12:12:51;;;;;;;16.92;5.35;;;;;;;24.72;100.00;101811.44;5252794;28;20031;-72
2023/10/10 12:15:22;;;;;;;9.67;3.73;;;;;;;24.83;100.00;101805.09;5246903;28;20061;-71
2023/10/10 12:17:52;;;;;;;8.15;4.03;;;;;;;24.98;100.00;101796.41;5252797;28;20024;-72
2023/10/10 12:20:25;;;;;;;9.27;3.67;;;;;;;25.09;100.00;101794.75;5251405;28;20330;-72
2023/10/10 12:22:55;;;;;;;12.30;4.53;;;;;;;25.00;100.00;101794.22;5251075;28;20437;-72
2023/10/10 12:25:26;;;;;;;15.32;4.90;;;;;;;24.70;100.00;101792.47;5249255;28;20079;-72
2023/10/10 12:28:00;;;;;;;14.43;5.07;;;;;;;24.53;100.00;101784.06;5255050;28;20046;-72
2023/10/10 12:30:31;;;;;;;14.55;4.45;;;;;;;24.36;100.00;101779.53;5253094;28;20032;-72
2023/10/10 12:33:03;;;;;;;11.02;4.43;;;;;;;24.06;100.00;101776.81;5253148;28;20027;-73
2023/10/10 12:35:35;;;;;;;13.20;3.88;;;;;;;24.08;100.00;101780.13;5255148;28;20511;-72
2023/10/10 12:38:06;;;;;;;9.20;4.18;;;;;;;24.21;100.00;101777.19;5251193;28;20693;-73
2023/10/10 12:40:37;;;;;;;10.77;4.38;;;;;;;24.39;100.00;101765.34;5251896;28;20024;-72
2023/10/10 12:43:11;;;;;;;13.10;4.22;;;;;;;24.67;100.00;101770.16;5251965;28;20516;-72
2023/10/10 12:45:41;;;;;;;18.15;4.78;;;;;;;24.89;100.00;101768.47;5251744;28;20717;-73
2023/10/10 12:48:14;;;;;;;9.48;4.25;;;;;;;25.07;100.00;101763.97;5252920;28;20034;-72
2023/10/10 12:50:46;;;;;;;12.57;4.28;;;;;;;25.13;100.00;101777.56;5243203;28;20016;-72
2023/10/10 12:53:20;;;;;;;12.27;4.10;;;;;;;25.22;100.00;101772.53;5249822;28;20049;-72
2023/10/10 12:55:55;;;;;;;16.38;4.82;;;;;;;25.33;98.06;101762.59;5252822;28;20118;-72
2023/10/10 12:58:26;;;;;;;10.13;4.05;;;;;;;25.43;99.80;101762.81;5248015;28;20031;-72
2023/10/10 13:00:58;;;;;;;13.40;4.32;;;;;;;25.51;97.36;101759.69;5253118;28;20401;-72
2023/10/10 13:03:30;;;;;;;13.85;4.82;;;;;;;25.47;94.66;101756.59;5246927;28;20031;-73
2023/10/10 13:06:03;;;;;;;9.75;4.30;;;;;;;25.48;95.87;101760.16;5252794;28;20458;-72
2023/10/10 13:08:54;;;;;;;10.05;4.15;;;;;;;25.71;100.00;101749.09;5254751;28;20029;-73
2023/10/10 13:11:35;;;;;;;11.13;4.13;;;;;;;25.86;100.00;101747.75;5247162;28;20114;-73
2023/10/10 13:14:09;;;;;;;9.38;4.35;;;;;;;25.99;91.20;101758.44;5250116;28;20111;-72
2023/10/10 13:19:21;;;;;;;11.75;4.25;;;;;;;26.18;89.65;101756.31;5251359;28;20093;-72
2023/10/10 13:21:52;;;;;;;8.10;4.00;;;;;;;26.34;91.15;101758.22;5251924;28;20462;-72
2023/10/10 13:24:25;;;;;;;10.90;5.30;;;;;;;26.32;88.08;101752.16;5249620;28;20139;-72
2023/10/10 13:26:57;;;;;;;12.85;4.55;;;;;;;26.24;88.78;101747.06;5249129;28;20125;-73
2023/10/10 13:29:28;;;;;;;9.80;4.10;;;;;;;26.27;88.63;101749.31;5247851;28;20130;-73
2023/10/10 13:31:58;;;;;;;14.32;4.63;;;;;;;26.31;96.23;101747.75;5253182;28;20020;-73
2023/10/10 13:34:29;;;;;;;11.80;4.50;;;;;;;26.24;89.08;101741.56;5250739;28;20025;-73
2023/10/10 13:36:59;;;;;;;13.82;4.10;;;;;;;26.06;84.22;101748.13;5250464;28;20068;-73
2023/10/10 13:39:43;;;;;;;14.65;4.25;;;;;;;26.09;89.73;101740.19;5248815;28;20016;-73
2023/10/10 13:42:14;;;;;;;12.55;4.18;;;;;;;26.06;93.08;101739.88;5247334;28;20411;-73
2023/10/10 13:44:45;;;;;;;18.02;4.43;;;;;;;26.12;90.71;101738.88;5248016;28;20040;-73
2023/10/10 13:47:16;;;;;;;13.30;4.13;;;;;;;26.09;90.84;101740.19;5252586;28;20204;-73
2023/10/10 13:50:13;;;;;;;13.35;3.88;;;;;;;26.09;88.67;101745.69;5251209;28;20024;-73
2023/10/10 13:52:38;;;;;;;14.10;4.30;;;;;;;26.06;93.68;101737.13;5247603;28;20028;-74
2023/10/10 13:55:09;;;;;;;9.55;3.90;;;;;;;26.05;86.98;101741.78;5253816;28;20088;-73